Time;durP1;ratioP1;P1;durP2;ratioP2;P2;SDS_P1;SDS_P2;PMS_P1;PMS_P2;Temp;Humidity;BMP_temperature;BMP_pressure;BME280_temperature;BME280_humidity;BME280_pressure;Samples;Min_cycle;Max_cycle;Signal;HPM_P1;HPM_P2
2024/02/22 00:01:59;;;;;;;2.75;0.80;;;;;;;10.18;90.30;99294.81;5229812;28;20482;-74
2024/02/22 00:04:29;;;;;;;1.25;0.70;;;;;;;10.18;90.27;99289.59;5227542;28;20025;-75
2024/02/22 00:07:00;;;;;;;2.03;0.90;;;;;;;10.07;90.56;99297.13;5229743;28;20033;-75
2024/02/22 00:09:31;;;;;;;1.77;0.88;;;;;;;10.02;91.35;99292.16;5228591;28;20473;-74
2024/02/22 00:12:01;;;;;;;2.13;0.90;;;;;;;10.03;92.22;99279.97;5230233;28;20028;-74
2024/02/22 00:14:34;;;;;;;3.67;0.90;;;;;;;9.97;93.54;99272.44;5230170;28;20494;-74
2024/02/22 00:17:04;;;;;;;3.20;0.90;;;;;;;9.99;92.56;99270.59;5227798;28;20021;-75
2024/02/22 00:19:35;;;;;;;2.50;1.00;;;;;;;10.06;92.36;99262.38;5229049;28;20246;-75
2024/02/22 00:22:05;;;;;;;2.33;0.98;;;;;;;10.01;93.06;99258.28;5208497;28;20032;-73
2024/02/22 00:24:36;;;;;;;1.95;0.80;;;;;;;10.04;93.45;99258.16;5207902;28;20394;-74
2024/02/22 00:27:06;;;;;;;2.45;0.93;;;;;;;9.94;93.92;99262.16;5228843;28;20116;-75
2024/02/22 00:29:37;;;;;;;3.92;0.65;;;;;;;10.04;95.41;99248.56;5227985;28;20123;-75
2024/02/22 00:32:09;;;;;;;3.28;1.00;;;;;;;10.03;96.20;99246.03;5227793;28;20028;-74
2024/02/22 00:34:39;;;;;;;2.58;0.95;;;;;;;9.87;96.54;99239.94;5228592;28;20025;-75
2024/02/22 00:37:09;;;;;;;2.90;1.10;;;;;;;9.80;98.26;99239.41;5228494;28;20029;-74
2024/02/22 00:39:40;;;;;;;1.40;0.77;;;;;;;9.88;98.06;99232.03;5230247;28;20113;-75
2024/02/22 00:42:10;;;;;;;2.28;0.98;;;;;;;9.77;99.63;99220.47;5227512;28;20508;-74
2024/02/22 00:44:41;;;;;;;2.45;0.85;;;;;;;9.87;100.00;99225.13;5229172;28;20155;-75
2024/02/22 00:47:11;;;;;;;3.00;0.88;;;;;;;9.70;100.00;99219.13;5227679;28;20033;-75
2024/02/22 00:49:42;;;;;;;2.60;0.85;;;;;;;9.76;100.00;99208.34;5230427;28;20031;-75
2024/02/22 00:52:12;;;;;;;4.72;0.90;;;;;;;9.76;100.00;99200.53;5228641;28;20039;-75
2024/02/22 00:54:43;;;;;;;2.17;0.93;;;;;;;9.74;100.00;99194.53;5224734;28;20024;-75
2024/02/22 00:57:13;;;;;;;1.52;0.80;;;;;;;9.75;100.00;99193.63;5228303;28;20107;-75
2024/02/22 00:59:44;;;;;;;2.58;0.70;;;;;;;9.68;100.00;99184.47;5229598;28;20505;-75
2024/02/22 01:02:14;;;;;;;4.07;0.98;;;;;;;9.68;100.00;99179.25;5228025;28;20027;-75
2024/02/22 01:04:45;;;;;;;2.22;0.82;;;;;;;9.68;100.00;99171.41;5226379;28;20020;-75
2024/02/22 01:07:15;;;;;;;1.75;1.08;;;;;;;9.65;100.00;99164.59;5228519;28;20498;-75
2024/02/22 01:09:54;;;;;;;2.70;1.00;;;;;;;9.66;100.00;99158.44;5230381;28;20082;-75
2024/02/22 01:12:25;;;;;;;1.58;0.80;;;;;;;9.64;100.00;99154.25;5220563;28;20036;-75
2024/02/22 01:14:55;;;;;;;3.22;0.90;;;;;;;9.70;100.00;99140.88;5206606;28;20021;-75
2024/02/22 01:17:25;;;;;;;3.45;1.00;;;;;;;9.63;100.00;99135.16;5226081;28;20054;-75
2024/02/22 01:19:56;;;;;;;1.98;0.90;;;;;;;9.63;100.00;99137.75;5224038;28;20032;-75
2024/02/22 01:22:26;;;;;;;2.42;0.80;;;;;;;9.58;100.00;99129.34;5224928;28;20029;-75
2024/02/22 01:24:56;;;;;;;2.22;0.80;;;;;;;9.66;100.00;99128.94;5209981;28;20508;-75
2024/02/22 01:27:26;;;;;;;2.30;0.85;;;;;;;9.65;100.00;99109.00;5229112;28;20440;-75
2024/02/22 01:29:57;;;;;;;2.05;0.90;;;;;;;9.63;100.00;99111.66;5207753;28;20029;-75
2024/02/22 01:32:28;;;;;;;3.53;0.80;;;;;;;9.59;100.00;99109.31;5230164;28;20147;-75
2024/02/22 01:34:58;;;;;;;2.55;0.90;;;;;;;9.57;100.00;99105.94;5211360;28;20097;-75
2024/02/22 01:37:29;;;;;;;1.98;0.80;;;;;;;9.59;100.00;99080.63;5229184;28;20028;-75
2024/02/22 01:39:59;;;;;;;3.17;0.82;;;;;;;9.56;100.00;99081.66;5229898;28;20028;-75
2024/02/22 01:42:29;;;;;;;1.67;0.73;;;;;;;9.50;100.00;99075.94;5207395;28;20383;-75
2024/02/22 01:45:02;;;;;;;1.38;0.85;;;;;;;9.49;100.00;99071.66;5230189;28;20060;-75
2024/02/22 01:47:33;;;;;;;1.95;0.82;;;;;;;9.55;100.00;99060.84;5221869;28;20599;-73
2024/02/22 01:50:07;;;;;;;3.55;0.80;;;;;;;9.50;100.00;99062.88;5210624;28;20244;-74
2024/02/22 01:52:39;;;;;;;2.38;0.77;;;;;;;9.42;100.00;99055.50;5211477;28;20023;-75
2024/02/22 01:55:10;;;;;;;2.13;0.77;;;;;;;9.55;100.00;99047.81;5209065;28;20040;-74
2024/02/22 01:57:40;;;;;;;1.48;0.63;;;;;;;9.51;100.00;99054.13;5230822;28;20184;-75
2024/02/22 02:00:15;;;;;;;1.45;0.70;;;;;;;9.41;100.00;99032.09;5207418;28;20040;-75
2024/02/22 02:02:47;;;;;;;2.07;0.70;;;;;;;9.36;100.00;99034.13;5209619;28;20494;-75
2024/02/22 02:05:17;;;;;;;1.33;0.50;;;;;;;9.34;100.00;99030.78;5230509;28;20032;-75
2024/02/22 02:07:48;;;;;;;2.20;0.65;;;;;;;9.34;100.00;99026.38;5228171;28;20089;-75
2024/02/22 02:10:18;;;;;;;2.25;0.80;;;;;;;9.32;100.00;99028.22;5206810;28;20456;-75
2024/02/22 02:12:49;;;;;;;2.45;0.75;;;;;;;9.36;100.00;99019.34;5229296;28;20058;-76
2024/02/22 02:15:19;;;;;;;4.75;0.88;;;;;;;9.36;100.00;99019.34;5208274;28;20482;-75
2024/02/22 02:17:49;;;;;;;0.93;0.63;;;;;;;9.33;100.00;99018.66;5227237;28;20056;-75
2024/02/22 02:20:26;;;;;;;2.65;0.90;;;;;;;9.29;100.00;99010.16;5213258;28;20020;-75
2024/02/22 02:23:05;;;;;;;1.30;0.75;;;;;;;9.32;100.00;99001.34;5225961;28;20025;-75
2024/02/22 02:25:35;;;;;;;2.67;0.70;;;;;;;9.32;100.00;98998.75;5228389;28;20017;-75
2024/02/22 02:28:06;;;;;;;2.35;0.70;;;;;;;9.30;100.00;98993.59;5226293;28;20032;-74
2024/02/22 02:30:36;;;;;;;1.30;0.73;;;;;;;9.17;100.00;98986.56;5211987;28;20024;-75
2024/02/22 02:33:06;;;;;;;1.15;0.70;;;;;;;9.29;100.00;98985.88;5228764;28;20051;-75
2024/02/22 02:35:37;;;;;;;1.67;0.70;;;;;;;9.29;100.00;98984.09;5229210;28;20475;-75
2024/02/22 02:38:10;;;;;;;2.92;0.80;;;;;;;9.34;100.00;98974.25;5226220;28;20100;-75
2024/02/22 02:40:41;;;;;;;2.97;0.70;;;;;;;9.33;100.00;98977.78;5229075;28;20025;-75
2024/02/22 02:43:11;;;;;;;3.08;0.60;;;;;;;9.34;100.00;98966.41;5227758;28;20082;-75
2024/02/22 02:45:42;;;;;;;1.88;0.60;;;;;;;9.27;100.00;98970.31;5230603;28;20112;-75
2024/02/22 02:48:14;;;;;;;1.60;0.63;;;;;;;9.32;100.00;98957.84;5225800;28;20078;-75
2024/02/22 02:50:44;;;;;;;1.25;0.70;;;;;;;9.31;100.00;98955.34;5229307;28;20033;-75
2024/02/22 02:53:14;;;;;;;1.20;0.68;;;;;;;9.29;100.00;98952.81;5226630;28;20035;-76
2024/02/22 02:55:45;;;;;;;1.77;0.68;;;;;;;9.36;100.00;98945.50;5227411;28;20032;-76
2024/02/22 02:58:15;;;;;;;1.20;0.60;;;;;;;9.24;100.00;98939.22;5225735;28;20519;-76
2024/02/22 03:00:45;;;;;;;1.02;0.60;;;;;;;9.23;100.00;98934.06;5227615;28;20055;-75
2024/02/22 03:03:16;;;;;;;2.10;0.80;;;;;;;9.29;100.00;98923.31;5226993;28;20033;-76
2024/02/22 03:05:46;;;;;;;1.98;0.55;;;;;;;9.26;100.00;98920.84;5232512;28;20048;-76
2024/02/22 03:08:16;;;;;;;2.20;0.70;;;;;;;9.17;100.00;98918.78;5226193;28;20036;-75
2024/02/22 03:10:46;;;;;;;1.83;0.77;;;;;;;9.16;100.00;98912.72;5225550;28;20039;-76
2024/02/22 03:13:17;;;;;;;1.33;0.60;;;;;;;9.18;100.00;98905.66;5226148;28;20148;-75
2024/02/22 03:15:51;;;;;;;1.50;0.70;;;;;;;9.20;100.00;98914.25;5230266;28;20107;-75
2024/02/22 03:18:21;;;;;;;2.13;0.70;;;;;;;9.18;100.00;98902.22;5224688;28;20040;-76
2024/02/22 03:20:52;;;;;;;0.50;0.50;;;;;;;9.11;100.00;98903.50;5232133;28;20473;-75
2024/02/22 03:23:24;;;;;;;0.77;0.52;;;;;;;9.21;100.00;98904.66;5209534;28;20141;-76
2024/02/22 03:25:54;;;;;;;4.88;0.95;;;;;;;9.24;100.00;98889.69;5231749;28;20024;-76
2024/02/22 03:28:24;;;;;;;1.13;0.57;;;;;;;9.18;100.00;98894.41;5228280;28;20043;-76
2024/02/22 03:30:55;;;;;;;0.55;0.40;;;;;;;9.09;100.00;98889.69;5212128;28;20101;-76
2024/02/22 03:33:27;;;;;;;1.63;0.80;;;;;;;9.18;100.00;98873.56;5227979;28;20057;-76
2024/02/22 03:35:58;;;;;;;1.27;0.55;;;;;;;9.17;100.00;98882.31;5212120;28;20016;-76
2024/02/22 03:38:28;;;;;;;0.85;0.40;;;;;;;9.18;100.00;98878.78;5208893;28;20390;-76
2024/02/22 03:40:58;;;;;;;0.52;0.32;;;;;;;9.15;100.00;98871.13;5229487;28;20342;-75
2024/02/22 03:43:29;;;;;;;1.42;0.60;;;;;;;9.13;100.00;98868.59;5229771;28;20028;-75
2024/02/22 03:45:59;;;;;;;0.90;0.60;;;;;;;9.27;100.00;98858.22;5228931;28;20028;-75
2024/02/22 03:48:29;;;;;;;1.63;0.50;;;;;;;9.21;100.00;98862.97;5209487;28;20954;-76
2024/02/22 03:51:00;;;;;;;1.23;0.60;;;;;;;9.21;100.00;98856.00;5230268;28;20523;-75
2024/02/22 03:53:30;;;;;;;0.73;0.50;;;;;;;9.25;100.00;98861.84;5226727;28;20033;-76
2024/02/22 03:56:00;;;;;;;0.43;0.40;;;;;;;9.24;100.00;98854.97;5210023;28;20070;-76
2024/02/22 03:58:30;;;;;;;1.20;0.47;;;;;;;9.16;100.00;98850.19;5228083;28;20032;-76
2024/02/22 04:01:01;;;;;;;1.17;0.40;;;;;;;9.15;100.00;98847.69;5228182;28;20020;-75
2024/02/22 04:03:33;;;;;;;0.50;0.47;;;;;;;9.10;100.00;98846.25;5228230;28;20075;-76
2024/02/22 04:06:05;;;;;;;1.30;0.38;;;;;;;9.16;100.00;98833.72;5189750;28;1062462;-75
2024/02/22 04:08:35;;;;;;;1.20;0.55;;;;;;;9.11;100.00;98842.72;5227476;28;20029;-76
2024/02/22 04:11:06;;;;;;;0.80;0.40;;;;;;;9.21;100.00;98832.53;5224089;28;20075;-73
2024/02/22 04:13:40;;;;;;;0.50;0.40;;;;;;;9.32;100.00;98822.31;5227298;28;20040;-75
2024/02/22 04:16:10;;;;;;;0.75;0.35;;;;;;;9.23;100.00;98824.63;5227109;28;20020;-76
2024/02/22 04:18:40;;;;;;;0.40;0.30;;;;;;;9.25;100.00;98815.78;5223818;28;20032;-75
2024/02/22 04:21:11;;;;;;;0.50;0.30;;;;;;;9.24;100.00;98818.47;5225952;28;20037;-75
2024/02/22 04:23:41;;;;;;;0.75;0.40;;;;;;;9.26;100.00;98819.22;5229071;28;20279;-74
2024/02/22 04:26:12;;;;;;;1.00;0.30;;;;;;;9.28;100.00;98805.19;5207419;28;20035;-74
2024/02/22 04:28:42;;;;;;;0.40;0.25;;;;;;;9.23;100.00;98806.38;5224570;28;20028;-75
2024/02/22 04:31:12;;;;;;;0.70;0.40;;;;;;;9.05;100.00;98798.81;5225948;28;20041;-74
2024/02/22 04:33:43;;;;;;;0.30;0.30;;;;;;;9.21;100.00;98803.00;5229228;28;20524;-75
2024/02/22 04:36:14;;;;;;;0.38;0.30;;;;;;;9.19;100.00;98794.44;5208603;28;20075;-75
2024/02/22 04:38:45;;;;;;;0.68;0.40;;;;;;;9.19;100.00;98800.53;5229922;28;20551;-75
2024/02/22 04:41:22;;;;;;;1.10;0.40;;;;;;;9.14;100.00;98793.91;5225437;28;20037;-75
2024/02/22 04:43:53;;;;;;;0.70;0.30;;;;;;;9.21;100.00;98785.63;5210509;28;20359;-75
2024/02/22 04:46:23;;;;;;;0.60;0.30;;;;;;;9.23;100.00;98786.38;5225582;28;20545;-75
2024/02/22 04:48:53;;;;;;;1.17;0.32;;;;;;;9.22;100.00;98778.63;5229180;28;20039;-75
2024/02/22 04:51:24;;;;;;;0.50;0.30;;;;;;;9.23;100.00;98777.69;5207065;28;20028;-75
2024/02/22 04:53:54;;;;;;;1.27;0.30;;;;;;;9.29;100.00;98783.41;5225575;28;20115;-75
2024/02/22 04:56:25;;;;;;;0.22;0.20;;;;;;;9.35;100.00;98771.78;5221352;28;20409;-76
2024/02/22 04:58:56;;;;;;;0.20;0.20;;;;;;;9.30;100.00;98766.00;5230194;28;20221;-76
2024/02/22 05:01:27;;;;;;;1.40;0.30;;;;;;;9.32;100.00;98766.75;5223848;28;20490;-76
2024/02/22 05:03:57;;;;;;;0.55;0.20;;;;;;;9.29;100.00;98761.72;5210646;28;20033;-76
2024/02/22 05:06:28;;;;;;;0.20;0.20;;;;;;;9.36;100.00;98750.84;5226403;28;20814;-76
2024/02/22 05:08:58;;;;;;;0.40;0.28;;;;;;;9.33;100.00;98755.38;5211557;28;20035;-75
2024/02/22 05:11:28;;;;;;;1.48;0.32;;;;;;;9.31;100.00;98747.66;5226426;28;20636;-74
2024/02/22 05:13:59;;;;;;;0.43;0.25;;;;;;;9.32;100.00;98745.91;5208535;28;20024;-75
2024/02/22 05:16:30;;;;;;;1.75;0.20;;;;;;;9.40;100.00;98739.28;5225148;28;20071;-76
2024/02/22 05:19:00;;;;;;;1.52;0.30;;;;;;;9.32;100.00;98740.69;5227132;28;20040;-76
2024/02/22 05:21:30;;;;;;;0.40;0.30;;;;;;;9.31;100.00;98736.41;5226691;28;20025;-75
2024/02/22 05:24:00;;;;;;;0.70;0.30;;;;;;;9.36;100.00;98737.81;5228566;28;20313;-75
2024/02/22 05:26:31;;;;;;;0.75;0.30;;;;;;;9.35;100.00;98730.88;5225766;28;20025;-75
2024/02/22 05:29:01;;;;;;;1.23;0.40;;;;;;;9.30;100.00;98729.50;5231665;28;20058;-75
2024/02/22 05:31:31;;;;;;;0.20;0.20;;;;;;;9.34;100.00;98721.41;5231040;28;20044;-75
2024/02/22 05:34:03;;;;;;;0.57;0.20;;;;;;;9.35;100.00;98715.25;5232602;28;20051;-75
2024/02/22 05:36:33;;;;;;;1.13;0.30;;;;;;;9.37;100.00;98723.00;5231384;28;20068;-75
2024/02/22 05:39:06;;;;;;;0.10;0.10;;;;;;;9.36;100.00;98713.50;5232646;28;20479;-76
2024/02/22 05:41:37;;;;;;;1.65;0.47;;;;;;;9.33;100.00;98711.09;5231918;28;20051;-75
2024/02/22 05:44:07;;;;;;;1.70;0.20;;;;;;;9.34;100.00;98707.53;5232620;28;20024;-76
2024/02/22 05:46:37;;;;;;;0.47;0.40;;;;;;;9.33;100.00;98705.88;5232397;28;20056;-76
2024/02/22 05:49:08;;;;;;;1.85;0.20;;;;;;;9.40;100.00;98699.34;5206741;28;20060;-76
2024/02/22 05:51:38;;;;;;;0.15;0.10;;;;;;;9.35;100.00;98697.00;5212863;28;20025;-76
2024/02/22 05:54:09;;;;;;;0.20;0.20;;;;;;;9.38;100.00;98690.78;5212056;28;20032;-75
2024/02/22 05:56:39;;;;;;;0.60;0.20;;;;;;;9.39;100.00;98684.63;5213391;28;20029;-76
2024/02/22 05:59:09;;;;;;;0.20;0.20;;;;;;;9.38;100.00;98688.16;5211651;28;20479;-75
2024/02/22 06:01:40;;;;;;;2.05;0.22;;;;;;;9.33;100.00;98682.41;5208438;28;20485;-76
2024/02/22 06:04:11;;;;;;;0.70;0.20;;;;;;;9.29;100.00;98686.97;5230132;28;20029;-76
2024/02/22 06:06:41;;;;;;;0.38;0.30;;;;;;;9.31;100.00;98679.88;5208911;28;20033;-74
2024/02/22 06:09:11;;;;;;;0.77;0.32;;;;;;;9.37;100.00;98676.91;5209051;28;20323;-76
2024/02/22 06:11:41;;;;;;;0.40;0.20;;;;;;;9.46;100.00;98671.13;5225591;28;20123;-76
2024/02/22 06:14:12;;;;;;;0.60;0.22;;;;;;;9.38;100.00;98672.53;5224494;28;20044;-76
2024/02/22 06:16:42;;;;;;;0.95;0.40;;;;;;;9.45;100.00;98668.63;5227172;28;20082;-75
2024/02/22 06:19:13;;;;;;;0.88;0.25;;;;;;;9.42;100.00;98674.00;5229627;28;20112;-76
2024/02/22 06:21:43;;;;;;;0.70;0.30;;;;;;;9.41;100.00;98674.94;5208280;28;20432;-76
2024/02/22 06:24:13;;;;;;;1.13;0.30;;;;;;;9.37;100.00;98663.03;5229795;28;20495;-75
2024/02/22 06:26:44;;;;;;;1.33;0.30;;;;;;;9.38;100.00;98662.09;5204392;28;20086;-76
2024/02/22 06:29:14;;;;;;;0.70;0.30;;;;;;;9.38;100.00;98668.16;5223546;28;20032;-76
2024/02/22 06:31:44;;;;;;;0.47;0.30;;;;;;;9.38;100.00;98662.97;5223484;28;20111;-75
2024/02/22 06:34:14;;;;;;;0.55;0.20;;;;;;;9.45;100.00;98664.25;5226830;28;20027;-76
2024/02/22 06:36:45;;;;;;;1.70;0.35;;;;;;;9.44;100.00;98659.97;5223011;28;20028;-76
2024/02/22 06:39:15;;;;;;;0.98;0.30;;;;;;;9.37;100.00;98660.44;5231987;28;20029;-75
2024/02/22 06:41:46;;;;;;;1.20;0.35;;;;;;;9.36;100.00;98656.16;5230825;28;20367;-75
2024/02/22 06:44:16;;;;;;;0.20;0.20;;;;;;;9.50;100.00;98650.94;5226308;28;20028;-75
2024/02/22 06:46:47;;;;;;;0.38;0.17;;;;;;;9.44;100.00;98643.47;5217770;28;20021;-76
2024/02/22 06:49:17;;;;;;;0.52;0.30;;;;;;;9.52;100.00;98643.84;5227741;28;20033;-76
2024/02/22 06:51:47;;;;;;;0.98;0.32;;;;;;;9.48;100.00;98643.19;5206739;28;20514;-76
2024/02/22 06:54:19;;;;;;;2.08;0.70;;;;;;;9.44;100.00;98639.09;5225174;28;20352;-75
2024/02/22 06:56:49;;;;;;;1.65;0.40;;;;;;;9.55;100.00;98643.66;5224241;28;20016;-76
2024/02/22 06:59:20;;;;;;;0.95;0.25;;;;;;;9.56;100.00;98645.31;5225182;28;20035;-73
2024/02/22 07:01:50;;;;;;;2.05;0.90;;;;;;;9.53;100.00;98635.94;5228392;28;20055;-76
2024/02/22 07:04:21;;;;;;;2.28;0.60;;;;;;;9.50;100.00;98640.50;5211313;28;20314;-75
2024/02/22 07:06:52;;;;;;;1.70;0.50;;;;;;;9.50;100.00;98641.31;5200071;28;20039;-76
2024/02/22 07:09:22;;;;;;;1.27;0.63;;;;;;;9.51;100.00;98639.56;5192312;28;20037;-76
2024/02/22 07:11:56;;;;;;;8.23;2.58;;;;;;;9.57;100.00;98636.56;5198146;28;20537;-75
2024/02/22 07:14:28;;;;;;;1.23;0.52;;;;;;;9.53;100.00;98635.09;5222516;28;20028;-76
2024/02/22 07:16:59;;;;;;;0.90;0.30;;;;;;;9.48;100.00;98630.16;5218777;28;20745;-76
2024/02/22 07:19:29;;;;;;;1.73;0.50;;;;;;;9.48;100.00;98621.50;5217225;28;20031;-76
2024/02/22 07:21:59;;;;;;;0.65;0.35;;;;;;;9.52;100.00;98629.03;5219188;28;20028;-76
2024/02/22 07:24:29;;;;;;;0.85;0.30;;;;;;;9.52;100.00;98625.59;5207455;28;20055;-76
2024/02/22 07:27:00;;;;;;;0.82;0.30;;;;;;;9.66;100.00;98623.78;5228815;28;20221;-76
2024/02/22 07:29:31;;;;;;;0.45;0.30;;;;;;;9.67;100.00;98624.66;5221732;28;20021;-74
2024/02/22 07:32:03;;;;;;;0.65;0.30;;;;;;;9.70;100.00;98625.28;5220467;28;20036;-75
2024/02/22 07:34:33;;;;;;;1.15;0.40;;;;;;;9.68;100.00;98628.94;5216850;28;20057;-74
2024/02/22 07:37:03;;;;;;;1.40;0.50;;;;;;;9.68;100.00;98616.69;5223419;28;20049;-76
2024/02/22 07:39:34;;;;;;;2.67;0.50;;;;;;;9.60;100.00;98621.56;5224359;28;20529;-76
2024/02/22 07:42:04;;;;;;;1.15;0.30;;;;;;;9.66;100.00;98618.56;5223421;28;20115;-73
2024/02/22 07:44:35;;;;;;;0.85;0.50;;;;;;;9.67;100.00;98622.84;5217994;28;20025;-75
2024/02/22 07:47:05;;;;;;;0.85;0.40;;;;;;;9.72;100.00;98617.34;5227571;28;20597;-75
2024/02/22 07:49:35;;;;;;;0.80;0.40;;;;;;;9.70;100.00;98620.06;5212876;28;20028;-76
2024/02/22 07:52:06;;;;;;;1.30;0.65;;;;;;;9.74;100.00;98621.56;5221528;28;20040;-76
2024/02/22 07:54:38;;;;;;;1.02;0.50;;;;;;;9.76;100.00;98621.44;5201559;28;20081;-76
2024/02/22 07:57:11;;;;;;;0.63;0.50;;;;;;;9.85;100.00;98615.66;5203123;28;20379;-75
2024/02/22 07:59:42;;;;;;;0.77;0.40;;;;;;;9.87;100.00;98614.63;5204317;28;20325;-76
2024/02/22 08:02:12;;;;;;;0.50;0.35;;;;;;;9.83;100.00;98612.31;5220624;28;20033;-76
2024/02/22 08:04:42;;;;;;;0.55;0.20;;;;;;;9.89;100.00;98611.91;5215891;28;20068;-75
2024/02/22 08:07:13;;;;;;;1.23;0.40;;;;;;;9.90;100.00;98608.34;5224584;28;20168;-76
2024/02/22 08:09:43;;;;;;;1.10;0.45;;;;;;;9.82;100.00;98610.63;5219908;28;20482;-76
2024/02/22 08:12:13;;;;;;;0.60;0.40;;;;;;;9.98;100.00;98600.91;5223989;28;20509;-76
2024/02/22 08:14:44;;;;;;;1.13;0.38;;;;;;;9.94;100.00;98604.59;5220699;28;20070;-76
2024/02/22 08:17:17;;;;;;;0.65;0.30;;;;;;;10.05;100.00;98595.22;5225381;28;20406;-76
2024/02/22 08:19:47;;;;;;;0.77;0.45;;;;;;;10.06;100.00;98599.50;5212978;28;20029;-76
2024/02/22 08:22:17;;;;;;;1.20;0.28;;;;;;;10.04;100.00;98595.28;5226825;28;20059;-76
2024/02/22 08:24:48;;;;;;;2.10;1.10;;;;;;;10.16;100.00;98600.53;5227131;28;20055;-76
2024/02/22 08:27:18;;;;;;;3.47;1.77;;;;;;;10.15;100.00;98603.28;5228549;28;20477;-76
2024/02/22 08:29:50;;;;;;;3.08;1.17;;;;;;;10.14;100.00;98597.19;5224845;28;20104;-76
2024/02/22 08:32:21;;;;;;;1.90;0.93;;;;;;;10.19;100.00;98600.34;5205599;28;20250;-76
2024/02/22 08:34:51;;;;;;;1.20;0.70;;;;;;;10.13;100.00;98589.50;5223359;28;20028;-76
2024/02/22 08:37:21;;;;;;;1.05;0.40;;;;;;;10.02;100.00;98592.78;5223842;28;20078;-76
2024/02/22 08:39:52;;;;;;;0.52;0.30;;;;;;;10.12;100.00;98591.25;5211589;28;20024;-75
2024/02/22 08:42:22;;;;;;;0.68;0.47;;;;;;;10.22;100.00;98583.66;5225678;28;20548;-75
2024/02/22 08:44:52;;;;;;;0.55;0.38;;;;;;;10.20;100.00;98580.31;5226258;28;20115;-76
2024/02/22 08:47:23;;;;;;;2.05;0.30;;;;;;;10.28;100.00;98584.09;5228565;28;20045;-76
2024/02/22 08:49:53;;;;;;;0.32;0.32;;;;;;;10.27;100.00;98576.34;5212096;28;20020;-76
2024/02/22 08:52:24;;;;;;;0.55;0.30;;;;;;;10.37;100.00;98577.44;5228836;28;20503;-76
2024/02/22 08:54:54;;;;;;;1.17;0.40;;;;;;;10.39;100.00;98570.31;5223710;28;20029;-75
2024/02/22 08:57:25;;;;;;;0.60;0.22;;;;;;;10.38;100.00;98576.47;5229713;28;20512;-75
2024/02/22 08:59:55;;;;;;;0.35;0.30;;;;;;;10.45;100.00;98569.91;5208194;28;20036;-75
2024/02/22 09:02:25;;;;;;;1.17;0.45;;;;;;;10.46;100.00;98563.75;5229995;28;20162;-76
2024/02/22 09:04:56;;;;;;;0.80;0.43;;;;;;;10.41;100.00;98560.59;5226236;28;20134;-76
2024/02/22 09:07:26;;;;;;;1.20;0.50;;;;;;;10.55;100.00;98550.91;5226263;28;20111;-75
2024/02/22 09:09:56;;;;;;;0.60;0.30;;;;;;;10.59;100.00;98552.38;5228341;28;20048;-76
2024/02/22 09:12:27;;;;;;;0.35;0.22;;;;;;;10.67;100.00;98544.03;5229958;28;20081;-76
2024/02/22 09:14:57;;;;;;;0.52;0.40;;;;;;;10.74;100.00;98553.09;5230515;28;20398;-76
2024/02/22 09:17:27;;;;;;;2.85;0.70;;;;;;;10.81;100.00;98549.13;5227155;28;20056;-76
2024/02/22 09:19:58;;;;;;;1.08;0.40;;;;;;;10.98;100.00;98544.41;5228687;28;20025;-76
2024/02/22 09:22:28;;;;;;;0.45;0.38;;;;;;;10.94;100.00;98539.50;5226605;28;20072;-76
2024/02/22 09:24:59;;;;;;;0.50;0.32;;;;;;;11.09;100.00;98532.25;5210597;28;20032;-75
2024/02/22 09:27:30;;;;;;;0.88;0.40;;;;;;;11.16;100.00;98528.28;5209875;28;20024;-76
2024/02/22 09:30:03;;;;;;;0.60;0.45;;;;;;;11.29;100.00;98523.84;5230126;28;20035;-76
2024/02/22 09:32:34;;;;;;;0.30;0.20;;;;;;;11.35;100.00;98526.03;5228211;28;20171;-73
2024/02/22 09:35:06;;;;;;;1.08;0.35;;;;;;;11.47;100.00;98526.94;5225302;28;20025;-73
2024/02/22 09:37:36;;;;;;;1.80;0.20;;;;;;;11.46;100.00;98514.81;5207663;28;20148;-73
2024/02/22 09:40:07;;;;;;;1.52;0.30;;;;;;;11.53;100.00;98511.66;5228514;28;20379;-75
2024/02/22 09:42:39;;;;;;;0.20;0.20;;;;;;;11.45;100.00;98513.97;5224066;28;20445;-76
2024/02/22 09:45:09;;;;;;;0.35;0.15;;;;;;;11.41;100.00;98520.38;5212707;28;20391;-76
2024/02/22 09:47:40;;;;;;;0.70;0.30;;;;;;;11.48;100.00;98511.13;5230235;28;20070;-75
2024/02/22 09:50:12;;;;;;;1.38;0.20;;;;;;;11.59;100.00;98502.56;5231280;28;20119;-76
2024/02/22 09:52:43;;;;;;;0.30;0.20;;;;;;;11.62;100.00;98497.91;5229330;28;20060;-75
2024/02/22 09:55:14;;;;;;;0.30;0.30;;;;;;;11.89;100.00;98502.91;5227184;28;20063;-76
2024/02/22 09:57:44;;;;;;;0.30;0.20;;;;;;;11.87;100.00;98504.81;5211136;28;20064;-76
2024/02/22 10:00:15;;;;;;;0.57;0.20;;;;;;;12.00;100.00;98509.03;5229112;28;20035;-76
2024/02/22 10:02:46;;;;;;;0.77;0.10;;;;;;;12.03;100.00;98506.19;5228521;28;20044;-76
2024/02/22 10:05:16;;;;;;;0.32;0.13;;;;;;;11.86;100.00;98501.38;5228001;28;20068;-75
2024/02/22 10:07:47;;;;;;;0.50;0.20;;;;;;;11.97;100.00;98500.56;5229031;28;20036;-75
2024/02/22 10:10:27;;;;;;;0.52;0.30;;;;;;;11.91;100.00;98498.38;5232501;28;20044;-75
2024/02/22 10:12:57;;;;;;;1.75;0.22;;;;;;;11.85;100.00;98491.84;5228507;28;20725;-76
2024/02/22 10:15:29;;;;;;;0.40;0.32;;;;;;;11.84;100.00;98492.81;5226102;28;20036;-75
2024/02/22 10:18:00;;;;;;;0.60;0.30;;;;;;;11.94;100.00;98485.91;5225089;28;20029;-75
2024/02/22 10:20:31;;;;;;;0.28;0.20;;;;;;;11.76;100.00;98489.09;5228446;28;20025;-75
2024/02/22 10:23:08;;;;;;;0.30;0.20;;;;;;;11.90;100.00;98487.09;5208674;28;20024;-77
2024/02/22 10:25:39;;;;;;;1.88;0.30;;;;;;;11.94;100.00;98491.16;5222616;28;20028;-75
2024/02/22 10:28:16;;;;;;;0.47;0.20;;;;;;;11.92;100.00;98479.97;5227976;28;20027;-75
2024/02/22 10:30:46;;;;;;;1.85;0.20;;;;;;;12.00;100.00;98475.00;5210023;28;20032;-75
2024/02/22 10:33:18;;;;;;;0.35;0.20;;;;;;;12.09;100.00;98474.31;5226747;28;20398;-75
2024/02/22 10:35:48;;;;;;;0.40;0.20;;;;;;;12.17;100.00;98473.75;5222718;28;20427;-75
2024/02/22 10:38:19;;;;;;;0.17;0.15;;;;;;;12.18;100.00;98484.09;5227143;28;20321;-75
2024/02/22 10:40:50;;;;;;;0.55;0.20;;;;;;;12.02;100.00;98472.25;5227754;28;20028;-75
2024/02/22 10:43:22;;;;;;;0.80;0.30;;;;;;;11.72;100.00;98471.91;5228039;28;20028;-75
2024/02/22 10:45:54;;;;;;;0.20;0.20;;;;;;;11.78;100.00;98477.53;5222491;28;20093;-75
2024/02/22 10:48:31;;;;;;;0.60;0.30;;;;;;;11.77;100.00;98465.41;5227053;28;20113;-75
2024/02/22 10:51:05;;;;;;;0.20;0.20;;;;;;;11.76;100.00;98455.88;5226860;28;20119;-75
2024/02/22 10:53:37;;;;;;;0.20;0.20;;;;;;;11.88;100.00;98447.13;5221155;28;20533;-75
2024/02/22 10:56:09;;;;;;;0.60;0.30;;;;;;;11.93;100.00;98439.75;5223202;28;20064;-75
2024/02/22 10:58:41;;;;;;;0.38;0.20;;;;;;;11.90;100.00;98442.63;5225002;28;20451;-75
2024/02/22 11:01:13;;;;;;;0.20;0.20;;;;;;;12.16;100.00;98431.00;5226438;28;20234;-75
2024/02/22 11:03:45;;;;;;;0.30;0.20;;;;;;;12.17;100.00;98419.59;5208052;28;20094;-74
2024/02/22 11:06:19;;;;;;;0.30;0.20;;;;;;;12.10;100.00;98413.13;5226074;28;20028;-75
2024/02/22 11:08:50;;;;;;;0.80;0.30;;;;;;;12.29;100.00;98402.94;5223388;28;20037;-75
2024/02/22 11:11:29;;;;;;;1.23;0.20;;;;;;;12.31;100.00;98397.59;5223688;28;20032;-75
2024/02/22 11:14:01;;;;;;;1.13;0.35;;;;;;;12.35;100.00;98381.53;5207939;28;20040;-76
2024/02/22 11:16:40;;;;;;;0.65;0.28;;;;;;;12.36;100.00;98375.34;5227322;28;20043;-75
2024/02/22 11:19:16;;;;;;;0.20;0.20;;;;;;;12.33;100.00;98367.69;5227681;28;20029;-75
2024/02/22 11:21:51;;;;;;;0.20;0.20;;;;;;;12.47;100.00;98370.06;5208848;28;20086;-75
2024/02/22 11:24:23;;;;;;;0.60;0.30;;;;;;;12.78;100.00;98356.22;5222457;28;20027;-75
2024/02/22 11:26:58;;;;;;;0.95;0.40;;;;;;;12.84;100.00;98350.47;5221859;28;20066;-75
2024/02/22 11:29:29;;;;;;;2.73;0.27;;;;;;;12.98;100.00;98345.00;5228398;28;20037;-75
2024/02/22 11:32:01;;;;;;;1.73;0.32;;;;;;;13.26;100.00;98333.94;5205692;28;20368;-75
2024/02/22 11:34:34;;;;;;;0.30;0.20;;;;;;;13.54;100.00;98328.09;5221797;28;20482;-75
2024/02/22 11:37:21;;;;;;;1.45;0.30;;;;;;;13.83;100.00;98318.59;5227430;28;20490;-75
2024/02/22 11:39:59;;;;;;;0.40;0.30;;;;;;;13.98;100.00;98319.91;5226392;28;20105;-75
2024/02/22 11:42:30;;;;;;;2.20;0.22;;;;;;;13.89;100.00;98310.22;5224563;28;20029;-75
2024/02/22 11:45:10;;;;;;;0.43;0.20;;;;;;;13.87;99.71;98314.72;5225294;28;20021;-75
2024/02/22 11:47:41;;;;;;;0.20;0.20;;;;;;;13.87;99.59;98304.22;5222544;28;20532;-75
2024/02/22 11:50:11;;;;;;;0.45;0.22;;;;;;;13.74;97.66;98308.88;5225730;28;20056;-75